createdAt,value
2022-08-28T00:02:50.065Z,94903.41
2022-08-28T00:05:53.851Z,94911.66
2022-08-28T00:08:57.777Z,94918.31
2022-08-28T00:12:02.502Z,94914.41
2022-08-28T00:15:08.267Z,94915.72
2022-08-28T00:18:15.103Z,94915.06
2022-08-28T00:21:18.366Z,94918.22
2022-08-28T00:24:21.934Z,94917.44
2022-08-28T00:27:43.809Z,94915.06
2022-08-28T00:30:49.785Z,94915.56
2022-08-28T00:33:53.653Z,94914.19
2022-08-28T00:36:56.827Z,94913.13
2022-08-28T00:39:59.955Z,94911.75
2022-08-28T00:43:07.446Z,94913.63
2022-08-28T00:46:13.087Z,94915.06
2022-08-28T00:49:18.935Z,94909.84
2022-08-28T00:52:24.310Z,94912.88
2022-08-28T00:55:29.694Z,94909.75
2022-08-28T00:58:35.046Z,94908.31
2022-08-28T01:01:39.330Z,94906.03
2022-08-28T01:04:43.109Z,94908.84
2022-08-28T01:07:47.198Z,94910.84
2022-08-28T01:10:55.467Z,94915.69
2022-08-28T01:14:02.381Z,94922.34
2022-08-28T01:17:08.411Z,94917.06
2022-08-28T01:20:15.422Z,94916.44
2022-08-28T01:23:27.970Z,94908.84
2022-08-28T01:26:33.286Z,94916.09
2022-08-28T01:29:36.634Z,94915.19
2022-08-28T01:32:42.072Z,94915.50
2022-08-28T01:35:48.349Z,94916.53
2022-08-28T01:38:57.296Z,94921.63
2022-08-28T01:42:03.878Z,94927.91
2022-08-28T01:45:11.330Z,94917.84
2022-08-28T01:48:15.473Z,94918.09
2022-08-28T01:51:24.389Z,94917.28
2022-08-28T01:54:28.879Z,94922.31
2022-08-28T01:57:33.666Z,94921.88
2022-08-28T02:00:37.114Z,94919.75
2022-08-28T02:03:43.306Z,94924.63
2022-08-28T02:06:49.087Z,94927.66
2022-08-28T02:09:52.791Z,94920.41
2022-08-28T02:12:59.256Z,94925.72
2022-08-28T02:16:02.759Z,94918.94
2022-08-28T02:19:06.241Z,94928.72
2022-08-28T02:22:10.470Z,94925.63
2022-08-28T02:25:14.138Z,94927.72
2022-08-28T02:28:20.108Z,94926.50
2022-08-28T02:31:23.277Z,94926.03
2022-08-28T02:34:26.546Z,94928.06
2022-08-28T02:37:29.998Z,94927.41
2022-08-28T02:40:33.499Z,94929.03
2022-08-28T02:43:38.358Z,94927.13
2022-08-28T02:46:41.536Z,94925.56
2022-08-28T02:49:44.715Z,94926.94
2022-08-28T02:52:49.320Z,94934.00
2022-08-28T02:55:52.607Z,94929.91
2022-08-28T02:58:58.467Z,94929.53
2022-08-28T03:02:04.082Z,94931.88
2022-08-28T03:05:07.626Z,94936.91
2022-08-28T03:08:10.810Z,94935.34
2022-08-28T03:11:14.038Z,94930.19
2022-08-28T03:14:20.750Z,94931.09
2022-08-28T03:17:24.422Z,94942.25
2022-08-28T03:20:27.999Z,94944.59
2022-08-28T03:23:31.923Z,94939.97
2022-08-28T03:26:35.329Z,94952.06
2022-08-28T03:29:40.238Z,94949.56
2022-08-28T03:32:43.619Z,94944.13
2022-08-28T03:35:46.792Z,94951.25
2022-08-28T03:38:50.742Z,94950.81
2022-08-28T03:41:53.866Z,94953.28
2022-08-28T03:44:59.638Z,94946.94
2022-08-28T03:48:03.912Z,94957.31
2022-08-28T03:51:09.069Z,94968.59
2022-08-28T03:54:12.172Z,94961.69
2022-08-28T03:57:18.927Z,94964.31
2022-08-28T04:00:26.164Z,94969.19
2022-08-28T04:03:30.493Z,94968.56
2022-08-28T04:06:34.223Z,94973.31
2022-08-28T04:09:39.461Z,94973.47
2022-08-28T04:12:44.529Z,94974.25
2022-08-28T04:15:57.434Z,94978.47
2022-08-28T04:19:01.812Z,94980.63
2022-08-28T04:22:05.115Z,94988.66
2022-08-28T04:25:09.292Z,94991.50
2022-08-28T04:28:12.580Z,94993.78
2022-08-28T04:31:17.966Z,94991.44
2022-08-28T04:34:34.131Z,95002.97
2022-08-28T04:37:37.714Z,95003.56
2022-08-28T04:40:41.541Z,95007.69
2022-08-28T04:43:45.710Z,95012.19
2022-08-28T04:46:50.208Z,95018.19
2022-08-28T04:49:53.489Z,95019.81
2022-08-28T04:52:56.681Z,95019.56
2022-08-28T04:56:00.779Z,95007.94
2022-08-28T04:59:04.267Z,95010.84
2022-08-28T05:02:09.459Z,95012.97
2022-08-28T05:05:13.000Z,95017.84
2022-08-28T05:08:17.891Z,95020.09
2022-08-28T05:11:33.179Z,95019.09
2022-08-28T05:14:37.834Z,95020.88
2022-08-28T05:17:42.845Z,95014.13
2022-08-28T05:20:48.675Z,95017.47
2022-08-28T05:23:56.563Z,95027.88
2022-08-28T05:27:02.231Z,95029.38
2022-08-28T05:30:06.297Z,95025.72
2022-08-28T05:33:13.388Z,95031.06
2022-08-28T05:36:17.913Z,95029.47
2022-08-28T05:39:21.179Z,95024.59
2022-08-28T05:42:26.860Z,95036.53
2022-08-28T05:45:34.618Z,95039.66
2022-08-28T05:48:40.976Z,95048.78
2022-08-28T05:51:44.573Z,95048.72
2022-08-28T05:54:48.870Z,95036.28
2022-08-28T05:57:52.235Z,95044.09
2022-08-28T06:00:55.415Z,95045.31
2022-08-28T06:04:03.248Z,95047.22
2022-08-28T06:07:06.891Z,95041.97
2022-08-28T06:10:10.948Z,95046.03
2022-08-28T06:13:14.092Z,95041.03
2022-08-28T06:16:17.433Z,95033.97
2022-08-28T06:19:23.682Z,95040.69
2022-08-28T06:22:26.835Z,95045.56
2022-08-28T06:25:30.095Z,95039.47
2022-08-28T06:28:33.483Z,95037.97
2022-08-28T06:31:37.311Z,95042.78
2022-08-28T06:34:41.997Z,95052.53
2022-08-28T06:37:46.091Z,95044.91
2022-08-28T06:40:52.937Z,95044.72
2022-08-28T06:43:57.768Z,95050.44
2022-08-28T06:47:00.889Z,95046.72
2022-08-28T06:50:06.127Z,95042.16
2022-08-28T06:53:10.208Z,95043.56
2022-08-28T06:56:25.709Z,95042.34
2022-08-28T06:59:30.349Z,95050.19
2022-08-28T07:02:33.474Z,95047.66
2022-08-28T07:05:38.288Z,95043.38
2022-08-28T07:08:42.159Z,95046.28
2022-08-28T07:11:46.649Z,95040.22
2022-08-28T07:14:49.916Z,95045.53
2022-08-28T07:17:53.059Z,95044.59
2022-08-28T07:21:00.578Z,95040.84
2022-08-28T07:24:05.471Z,95039.16
2022-08-28T07:27:09.125Z,95034.84
2022-08-28T07:30:13.373Z,95043.56
2022-08-28T07:33:16.736Z,95039.56
2022-08-28T07:36:29.769Z,95042.84
2022-08-28T07:39:33.251Z,95028.06
2022-08-28T07:42:52.779Z,95025.84
2022-08-28T07:45:59.759Z,95032.59
2022-08-28T07:49:03.819Z,95027.59
2022-08-28T07:52:12.373Z,95023.44
2022-08-28T07:55:16.332Z,95018.44
2022-08-28T07:58:19.613Z,95020.53
2022-08-28T08:01:23.245Z,95019.44
2022-08-28T08:04:26.887Z,95023.47
2022-08-28T08:07:33.032Z,95022.50
2022-08-28T08:10:36.733Z,95016.50
2022-08-28T08:13:42.005Z,95010.91
2022-08-28T08:16:47.595Z,95020.19
2022-08-28T08:19:51.426Z,95015.44
2022-08-28T08:22:56.638Z,95018.28
2022-08-28T08:26:04.140Z,95004.47
2022-08-28T08:29:07.928Z,95012.31
2022-08-28T08:32:13.840Z,95016.78
2022-08-28T08:35:18.281Z,95018.16
2022-08-28T08:38:23.793Z,95013.91
2022-08-28T08:41:31.027Z,95010.44
2022-08-28T08:44:37.414Z,95005.41
2022-08-28T08:47:51.665Z,95003.38
2022-08-28T08:50:57.494Z,95004.59
2022-08-28T08:54:07.825Z,94999.75
2022-08-28T08:57:12.826Z,95001.22
2022-08-28T09:22:55.504Z,94998.78
2022-08-28T09:26:01.806Z,94996.81
2022-08-28T09:29:09.111Z,94985.88
2022-08-28T09:32:23.661Z,94988.56
2022-08-28T09:35:29.200Z,94986.38
2022-08-28T09:38:33.693Z,94988.19
2022-08-28T09:41:56.919Z,94980.03
2022-08-28T09:45:09.499Z,94988.63
2022-08-28T09:48:23.838Z,94981.59
2022-08-28T09:51:31.478Z,94976.88
2022-08-28T09:54:42.019Z,94978.56
2022-08-28T09:57:47.651Z,94972.06
2022-08-28T10:00:57.108Z,94966.25
2022-08-28T10:04:15.524Z,94971.19
2022-08-28T10:07:28.795Z,94962.22
2022-08-28T10:10:39.921Z,94957.06
2022-08-28T10:13:54.819Z,94954.81
2022-08-28T10:17:07.488Z,94949.91
2022-08-28T10:20:17.971Z,94954.94
2022-08-28T10:23:32.809Z,94944.09
2022-08-28T10:26:44.509Z,94948.69
2022-08-28T10:29:55.012Z,94944.44
2022-08-28T10:33:13.143Z,94932.91
2022-08-28T10:36:33.520Z,94943.75
2022-08-28T10:39:49.125Z,94942.75
2022-08-28T10:43:02.131Z,94939.28
2022-08-28T10:46:07.176Z,94935.81
2022-08-28T10:49:17.603Z,94937.16
2022-08-28T10:52:25.850Z,94934.47
2022-08-28T10:55:36.658Z,94929.00
2022-08-28T10:58:42.015Z,94932.03
2022-08-28T11:01:47.401Z,94927.09
2022-08-28T11:04:53.277Z,94924.44
2022-08-28T11:08:02.100Z,94917.50
2022-08-28T11:11:08.503Z,94924.31
2022-08-28T11:14:25.178Z,94927.44
2022-08-28T11:17:42.586Z,94911.69
2022-08-28T11:20:58.100Z,94910.56
2022-08-28T11:24:07.186Z,94914.13
2022-08-28T11:27:22.041Z,94916.56
2022-08-28T11:30:33.518Z,94913.78
2022-08-28T11:33:42.025Z,94907.03
2022-08-28T11:37:01.300Z,94913.38
2022-08-28T11:40:18.407Z,94904.06
2022-08-28T11:43:37.888Z,94904.50
2022-08-28T11:46:44.827Z,94899.78
2022-08-28T11:49:47.970Z,94902.38
2022-08-28T11:53:45.485Z,94895.47
2022-08-28T11:57:01.401Z,94895.94
2022-08-28T12:00:11.560Z,94891.88
2022-08-28T12:03:17.899Z,94887.06
2022-08-28T12:07:01.975Z,94890.53
2022-08-28T12:10:46.485Z,94880.69
2022-08-28T12:13:53.007Z,94880.81
2022-08-28T12:17:18.612Z,94880.69
2022-08-28T12:20:29.536Z,94886.28
2022-08-28T12:23:45.677Z,94878.41
2022-08-28T12:26:54.257Z,94876.22
2022-08-28T12:30:03.347Z,94873.97
2022-08-28T12:33:15.878Z,94873.91
2022-08-28T12:36:26.610Z,94870.94
2022-08-28T12:39:31.748Z,94869.94
2022-08-28T12:42:39.348Z,94864.50
2022-08-28T12:45:50.797Z,94873.75
2022-08-28T12:48:56.237Z,94870.28
2022-08-28T12:52:11.573Z,94865.94
2022-08-28T12:55:24.367Z,94865.19
2022-08-28T12:58:33.012Z,94861.38
2022-08-28T13:01:39.056Z,94862.16
2022-08-28T13:04:46.833Z,94859.91
2022-08-28T13:07:52.614Z,94857.56
2022-08-28T13:10:56.233Z,94859.91
2022-08-28T13:13:59.462Z,94852.97
2022-08-28T13:17:04.600Z,94856.09
2022-08-28T13:20:08.962Z,94849.84
2022-08-28T13:23:29.863Z,94846.44
2022-08-28T13:26:36.470Z,94844.69
2022-08-28T13:29:51.647Z,94837.31
2022-08-28T13:33:04.676Z,94852.09
2022-08-28T13:36:22.117Z,94858.03
2022-08-28T13:39:25.570Z,94853.25
2022-08-28T13:42:29.136Z,94853.25
2022-08-28T13:45:35.643Z,94843.31
2022-08-28T13:48:47.216Z,94844.47
2022-08-28T13:51:50.864Z,94841.84
2022-08-28T13:54:54.493Z,94840.19
2022-08-28T13:57:58.513Z,94831.78
2022-08-28T14:01:02.372Z,94834.03
2022-08-28T14:04:05.988Z,94829.44
2022-08-28T14:07:09.823Z,94830.59
2022-08-28T14:10:13.183Z,94832.91
2022-08-28T14:13:16.392Z,94826.84
2022-08-28T14:16:19.660Z,94825.38
2022-08-28T14:19:24.289Z,94826.69
2022-08-28T14:22:27.886Z,94824.69
2022-08-28T14:25:31.732Z,94823.47
2022-08-28T14:28:36.881Z,94822.41
2022-08-28T14:31:41.199Z,94823.16
2022-08-28T14:34:47.699Z,94823.16
2022-08-28T14:37:50.840Z,94821.91
2022-08-28T14:40:54.819Z,94812.28
2022-08-28T14:43:59.384Z,94820.50
2022-08-28T14:47:02.514Z,94815.50
2022-08-28T14:50:08.044Z,94815.50
2022-08-28T14:53:11.907Z,94814.88
2022-08-28T14:56:15.532Z,94804.53
2022-08-28T14:59:24.225Z,94807.22
2022-08-28T15:02:27.682Z,94804.72
2022-08-28T15:05:32.174Z,94799.63
2022-08-28T15:08:36.848Z,94798.72
2022-08-28T15:11:40.464Z,94788.06
2022-08-28T15:14:51.392Z,94793.44
2022-08-28T15:17:58.704Z,94796.09
2022-08-28T15:21:03.747Z,94795.09
2022-08-28T15:24:09.746Z,94798.00
2022-08-28T15:27:12.854Z,94797.66
2022-08-28T15:30:16.964Z,94804.84
2022-08-28T15:33:20.080Z,94807.81
2022-08-28T15:36:24.646Z,94804.69
2022-08-28T15:39:47.118Z,94803.06
2022-08-28T15:42:50.267Z,94808.94
2022-08-28T15:45:53.409Z,94810.06
2022-08-28T15:48:57.122Z,94809.78
2022-08-28T15:52:01.982Z,94805.63
2022-08-28T15:55:07.534Z,94809.84
2022-08-28T15:58:13.842Z,94820.56
2022-08-28T16:01:17.706Z,94819.19
2022-08-28T16:04:20.952Z,94825.84
2022-08-28T16:07:26.114Z,94821.03
2022-08-28T16:10:29.642Z,94824.41
2022-08-28T16:13:32.854Z,94835.44
2022-08-28T16:16:36.195Z,94833.81
2022-08-28T16:19:40.238Z,94831.91
2022-08-28T16:22:44.730Z,94839.81
2022-08-28T16:25:47.895Z,94845.47
2022-08-28T16:28:51.232Z,94844.03
2022-08-28T16:31:54.367Z,94844.13
2022-08-28T16:34:57.602Z,94846.28
2022-08-28T16:38:02.681Z,94846.56
2022-08-28T16:41:06.433Z,94843.69
2022-08-28T16:44:09.487Z,94845.63
2022-08-28T16:47:12.670Z,94844.34
2022-08-28T16:50:15.918Z,94845.56
2022-08-28T16:53:24.346Z,94848.59
2022-08-28T16:56:30.271Z,94847.19
2022-08-28T16:59:33.862Z,94850.72
2022-08-28T17:02:40.614Z,94850.44
2022-08-28T17:05:43.914Z,94857.03
2022-08-28T17:08:49.915Z,94862.72
2022-08-28T17:11:55.714Z,94863.59
2022-08-28T17:14:58.883Z,94858.75
2022-08-28T17:18:02.014Z,94865.16
2022-08-28T17:21:23.507Z,94865.28
2022-08-28T17:24:28.205Z,94868.47
2022-08-28T17:27:32.178Z,94875.22
2022-08-28T17:30:35.346Z,94880.50
2022-08-28T17:33:39.740Z,94895.19
2022-08-28T17:36:43.421Z,94898.91
2022-08-28T17:39:48.399Z,94911.22
2022-08-28T17:42:53.721Z,94919.16
2022-08-28T17:45:57.055Z,94914.81
2022-08-28T17:49:00.623Z,94921.06
2022-08-28T17:52:04.670Z,94920.84
2022-08-28T17:55:10.379Z,94921.75
2022-08-28T17:58:13.976Z,94929.81
2022-08-28T18:01:20.255Z,94918.84
2022-08-28T18:04:24.811Z,94923.53
2022-08-28T18:07:28.211Z,94936.41
2022-08-28T18:10:34.508Z,94940.53
2022-08-28T18:13:37.970Z,94932.50
2022-08-28T18:16:41.213Z,94938.63
2022-08-28T18:19:44.820Z,94943.31
2022-08-28T18:22:48.635Z,94937.97
2022-08-28T18:25:53.114Z,94942.31
2022-08-28T18:28:56.301Z,94945.44
2022-08-28T18:32:01.831Z,94943.44
2022-08-28T18:35:05.460Z,94945.44
2022-08-28T18:38:09.302Z,94944.78
2022-08-28T18:41:13.818Z,94943.31
2022-08-28T18:44:21.176Z,94954.84
2022-08-28T18:47:26.887Z,94961.44
2022-08-28T18:50:31.889Z,94964.59
2022-08-28T18:53:34.998Z,94958.09
2022-08-28T18:56:39.960Z,94974.53
2022-08-28T18:59:44.260Z,94970.41
2022-08-28T19:02:47.811Z,94982.38
2022-08-28T19:05:51.202Z,94992.00
2022-08-28T19:08:54.336Z,94992.00
2022-08-28T19:11:58.887Z,94994.69
2022-08-28T19:15:02.100Z,95000.94
2022-08-28T19:18:05.801Z,95005.19
2022-08-28T19:21:16.147Z,94997.47
2022-08-28T19:24:22.393Z,95004.41
2022-08-28T19:27:26.922Z,95005.84
2022-08-28T19:30:33.223Z,95008.75
2022-08-28T19:33:36.526Z,95009.88
2022-08-28T19:36:40.295Z,95021.28
2022-08-28T19:39:47.839Z,95027.31
2022-08-28T19:43:01.182Z,95024.94
2022-08-28T19:46:09.805Z,95029.88
2022-08-28T19:49:17.600Z,95027.50
2022-08-28T19:52:20.803Z,95036.69
2022-08-28T19:55:26.233Z,95024.72
2022-08-28T19:58:30.703Z,95029.31
2022-08-28T20:01:37.810Z,95026.97
2022-08-28T20:04:40.978Z,95027.97
2022-08-28T20:07:44.726Z,95027.97
2022-08-28T20:10:48.044Z,95028.75
2022-08-28T20:13:53.542Z,95037.59
2022-08-28T20:16:56.687Z,95038.69
2022-08-28T20:20:03.021Z,95050.56
2022-08-28T20:23:07.525Z,95052.47
2022-08-28T20:26:11.703Z,95050.84
2022-08-28T20:29:17.242Z,95058.13
2022-08-28T20:32:20.388Z,95056.56
2022-08-28T20:35:24.608Z,95056.13
2022-08-28T20:38:32.404Z,95060.69
2022-08-28T20:41:36.892Z,95059.91
2022-08-28T20:44:41.479Z,95056.44
2022-08-28T20:47:44.920Z,95053.31
2022-08-28T20:50:47.965Z,95054.88
2022-08-28T20:53:53.970Z,95057.91
2022-08-28T20:56:58.473Z,95062.47
2022-08-28T21:00:05.758Z,95059.47
2022-08-28T21:03:12.146Z,95059.47
2022-08-28T21:06:15.223Z,95045.16
2022-08-28T21:09:19.662Z,95047.41
2022-08-28T21:12:24.802Z,95050.84
2022-08-28T21:15:29.665Z,95040.47
2022-08-28T21:18:32.754Z,95047.06
2022-08-28T21:21:38.251Z,95049.63
2022-08-28T21:24:41.625Z,95048.50
2022-08-28T21:27:45.944Z,95049.94
2022-08-28T21:30:50.461Z,95046.47
2022-08-28T21:33:53.551Z,95046.47
2022-08-28T21:36:56.640Z,95053.72
2022-08-28T21:40:00.859Z,95049.81
2022-08-28T21:43:04.527Z,95052.50
2022-08-28T21:46:10.295Z,95050.47
2022-08-28T21:49:13.587Z,95048.91
2022-08-28T21:52:16.645Z,95051.59
2022-08-28T21:55:19.742Z,95050.16
2022-08-28T21:58:24.119Z,95051.28
2022-08-28T22:01:28.729Z,95061.22
2022-08-28T22:04:31.854Z,95055.06
2022-08-28T22:07:34.915Z,95058.63
2022-08-28T22:10:40.485Z,95052.94
2022-08-28T22:13:43.846Z,95050.09
2022-08-28T22:16:48.435Z,95056.91
2022-08-28T22:19:51.555Z,95057.56
2022-08-28T22:23:11.851Z,95058.22
2022-08-28T22:26:17.445Z,95049.47
2022-08-28T22:29:20.469Z,95058.88
2022-08-28T22:32:26.885Z,95060.13
2022-08-28T22:35:30.551Z,95062.63
2022-08-28T22:38:33.686Z,95063.47
2022-08-28T22:41:37.642Z,95073.41
2022-08-28T22:44:41.342Z,95072.94
2022-08-28T22:47:45.941Z,95068.00
2022-08-28T22:50:49.871Z,95072.81
2022-08-28T22:53:53.054Z,95071.25
2022-08-28T22:56:56.225Z,95065.25
2022-08-28T23:00:02.901Z,95066.47
2022-08-28T23:03:07.905Z,95072.13
2022-08-28T23:06:11.082Z,95060.72
2022-08-28T23:09:14.194Z,95065.44
2022-08-28T23:12:18.253Z,95063.06
2022-08-28T23:15:22.983Z,95071.31
2022-08-28T23:18:27.727Z,95062.16
2022-08-28T23:21:30.871Z,95062.97
2022-08-28T23:24:33.959Z,95065.31
2022-08-28T23:27:37.124Z,95057.94
2022-08-28T23:30:48.361Z,95061.44
2022-08-28T23:33:54.299Z,95068.13
2022-08-28T23:36:58.461Z,95071.00
2022-08-28T23:40:01.800Z,95072.38
2022-08-28T23:43:05.160Z,95078.47
2022-08-28T23:46:08.325Z,95083.03
2022-08-28T23:49:13.561Z,95071.50
2022-08-28T23:52:19.849Z,95069.56
2022-08-28T23:55:27.051Z,95078.94
2022-08-28T23:58:32.289Z,95070.91
